METAR Data
IDs: Format: Raw Decoded Include TAF

Data at: 1323 UTC 17 Sep 2019

METAR for:TJNR (Roosevelt Roads Arpt, PR, US)
Text:TJNR 171320Z AUTO 11015G21KT 9SM SCT023 30/26 A2996 RMK AO2 T03000256
Temperature: 30.0°C ( 86°F)
Dewpoint: 25.6°C ( 78°F) [RH = 77%]
Pressure (altimeter):29.96 inches Hg (1014.6 mb)
Winds:from the ESE (110 degrees) at 17 MPH (15 knots; 7.7 m/s) gusting to 24 MPH (21 knots; 10.8 m/s)
Visibility: 9 sm ( 14 km)
Ceiling:at least 12,000 feet AGL
Clouds: scattered clouds at 2300 feet AGL
QC Flag:automated observation with no human augmentation